• Join FlightAware (Why Join?)
  • Login
  • US Flag 
10:03PM EDT


 

Airport Tracker/Info


-or-


 

Live Flight TrackerFlight Track Log ✈ SKW4728 ✈ 06-May-2013 ✈ KMFR - KSLC

Flight Track Log - Related Links

Times and Time Zones

All times are in EDT time to prevent confusion due to time zone crossing. See the SKW4728 flight status page for this flight to view local times or setup timezone preferences in your user account.

Time Position Orientation Groundspeed Altitude Reporting Facility
EDT Latitude Longitude Course Direction KTS MPH feet Rate Location/Type
04:29PM 42.4594 -122.8358 33° Northeast 224 258 4,700  Level Seattle Center
04:31PM 42.3768 -122.5852 111° Southeast  Level FlightAware Approximate
04:31PM 42.3520 -122.4911 109° East  Level FlightAware Approximate
04:32PM 42.3207 -122.3534 105° East  Level FlightAware Approximate
04:33PM 42.2846 -122.2180 111° Southeast  Level FlightAware Approximate
04:34PM 42.4083 -122.3706 99° East 302 348 16,400  Level Seattle Center
04:36PM 42.3782 -122.1397 104° East  Level FlightAware Approximate
04:37PM 42.3550 -122.0233 104° East 315 362 22,100  Level Seattle Center
04:38PM 42.2866 -121.6184 99° East  Level FlightAware Approximate
04:38PM 42.3367 -121.9019 102° East 325 374 23,500  Level Seattle Center
04:39PM 42.2704 -121.4812 99° East  Level FlightAware Approximate
04:39PM 42.3164 -121.7794 103° East 330 380 24,700  Level Seattle Center
04:40PM 42.2967 -121.6542 102° East 335 386 25,800 900 Climbing Seattle Center
04:42PM 42.2621 -121.4202 102° East  Level FlightAware Approximate
04:43PM 42.2342 -121.2656 102° East 353 406 28,600  Level Seattle Center
04:45PM 42.2333 -121.0312 90° East  Level FlightAware Approximate
04:46PM 42.2558 -120.8339 90° East 355 409 31,500  Level Seattle Center
04:47PM 42.2628 -120.6981 86° East 361 415 32,000 480 Climbing Seattle Center
04:48PM 42.2689 -120.5581 87° East 372 428 32,500 300 Climbing Seattle Center
04:50PM 42.2392 -120.2997 99° East 379 436 33,000 120 Climbing Salt Lake Center
04:51PM 42.2106 -120.1564 105° East 393 452 33,000  Level Salt Lake Center
04:52PM 42.1822 -120.0147 105° East 393 452 33,000  Level Salt Lake Center
04:53PM 42.1503 -119.8517 105° East 394 453 33,000  Level Seattle Center
04:54PM 42.1208 -119.7103 106° East 393 452 33,000  Level Seattle Center
04:55PM 42.0919 -119.5706 106° East 389 448 33,000  Level Seattle Center
04:56PM 42.0625 -119.4308 106° East 389 448 33,000  Level Seattle Center
04:57PM 42.0322 -119.2786 105° East 387 445 33,000  Level Seattle Center
04:58PM 42.0042 -119.1467 106° East 384 442 33,000  Level Seattle Center
04:59PM 41.9719 -118.9928 106° East 384 442 33,000  Level Seattle Center
05:00PM 41.9478 -118.8842 107° East 380 437 33,000  Level Salt Lake Center
05:01PM 41.9161 -118.7317 106° East 380 437 33,000  Level Salt Lake Center
05:02PM 41.8886 -118.6011 106° East 381 438 33,000  Level Salt Lake Center
05:03PM 41.8550 -118.4500 107° East 379 436 33,000  Level Salt Lake Center
05:04PM 41.8272 -118.3203 106° East 378 435 33,000  Level Salt Lake Center
05:05PM 41.7989 -118.1906 106° East 378 435 33,000  Level Salt Lake Center
05:07PM 41.7378 -117.9100 106° East 377 434 33,000  Level Salt Lake Center
05:08PM 41.7033 -117.7583 107° East 380 437 33,000  Level Salt Lake Center
05:10PM 41.6654 -117.5900 107° East  Level FlightAware Approximate
05:11PM 41.6114 -117.3511 107° East 375 432 33,000  Level Salt Lake Center
05:12PM 41.5828 -117.2228 107° East 376 433 33,000  Level Salt Lake Center
05:13PM 41.5483 -117.0711 107° East 381 438 33,000  Level Salt Lake Center
05:14PM 41.5183 -116.9422 107° East 380 437 33,000  Level Salt Lake Center
05:16PM 41.4839 -116.7951 107° East  Level FlightAware Approximate
05:17PM 41.4543 -116.6753 107° East  Level FlightAware Approximate
05:18PM 41.3842 -116.3856 108° East 385 443 33,000  Level Salt Lake Center
05:19PM 41.3008 -116.3083 145° Southeast 390 449 33,000  Level Salt Lake Center
05:21PM 41.1983 -116.2869 171° South 389 448 33,000  Level Salt Lake Center
05:22PM 41.0772 -116.2592 170° South 392 451 33,000  Level Salt Lake Center
05:23PM 41.2701 -115.9027 107° East  Level FlightAware Approximate
05:23PM 40.9725 -116.2314 169° South 396 456 33,000  Level Salt Lake Center
05:24PM 41.2391 -115.7757 108° East  Level FlightAware Approximate
05:25PM 40.7606 -116.1353 161° South 393 452 33,000  Level Salt Lake Center
05:27PM 40.7097 -115.8544 103° East 393 452 33,000  Level Salt Lake Center
05:28PM 40.7128 -115.7169 88° East 391 450 33,000  Level Salt Lake Center
05:29PM 40.7156 -115.5564 89° East 393 452 33,000 -420 Level Salt Lake Center
05:31PM 40.7172 -115.2783 89° East 396 456 31,800 -660 Descending Salt Lake Center
05:32PM 40.7206 -115.1125 88° East 403 464 31,000 -300 Descending Salt Lake Center
05:34PM 40.7242 -114.8286 89° East 375 432 31,000  Level Salt Lake Center
05:35PM 40.7253 -114.6936 89° East 380 437 31,000  Level Salt Lake Center
05:36PM 40.7278 -114.5514 89° East 386 444 31,000 -300 Level Salt Lake Center
05:38PM 40.7017 -114.3478 88° East  Level FlightAware Approximate
05:39PM 40.7278 -114.0936 88° East 390 449 30,000  Level Salt Lake Center
05:41PM 40.7289 -113.8186 90° East 384 442 26,300 -1,860 Descending Salt Lake Center
05:42PM 40.7278 -113.6639 90° East 415 478 24,400 -1,920 Descending Salt Lake Center
05:43PM 40.7269 -113.5083 90° East 424 488 22,400 -1,980 Descending Salt Lake Center
05:45PM 40.7167 -113.3277 90° East  Level FlightAware Approximate
05:45PM 40.7267 -113.2097 90° East 408 470 18,300  Level Salt Lake Center
05:46PM 40.7250 -113.0553 91° East 345 397 17,000 -420 Descending Salt Lake Center
05:48PM 40.7167 -112.8853 90° East  Level FlightAware Approximate
05:48PM 40.7228 -112.8222 90° East 321 369 17,000  Level Salt Lake Center
05:49PM 40.7222 -112.7100 90° East 309 356 17,000  Level Salt Lake Center
05:50PM 40.7211 -112.6092 91° East 277 319 17,000  Level Salt Lake Center
05:51PM 40.7233 -112.5108 88° East 271 312 17,000 -780 Level Salt Lake Center
05:53PM 40.7085 -112.3675 96° East  Level FlightAware Approximate
05:53PM 40.7594 -112.3011 96° East 265 305 14,600  Level Salt Lake Center
05:54PM 40.7658 -112.2064 85° East 256 295 14,000 -300 Descending Salt Lake Center
05:55PM 40.7211 -112.1583 141° Southeast 250 288 14,000  Level Salt Lake Center
05:56PM 40.6906 -112.2450 245° Southwest 266 306 14,000  Level Salt Lake Center
05:57PM 40.6269 -112.2831 204° Southwest 255 293 14,000  Level Salt Lake Center
05:59PM 40.5564 -112.3067 194° South 258 297 14,000  Level Salt Lake Center
06:00PM 40.6240 -112.2112 47° Northeast  Level Estimated
06:01PM 40.4858 -112.2317 47° Northeast 262 302 14,000  Level Salt Lake Center
06:02PM 40.5178 -112.1533 62° Northeast 259 298 14,000  Level Salt Lake Center
06:03PM 40.5747 -112.0953 38° Northeast 263 303 14,000 -300 Level Salt Lake Center
06:05PM 40.7167 -112.0961 360° North 255 293 13,100 -780 Descending Salt Lake Center
06:07PM 40.8461 -112.1047 357° North 233 268 11,100 -720 Descending Salt Lake Center
06:08PM 40.9131 -112.1050 360° North 233 268 11,000 -720 Descending Salt Lake Center
06:09PM 40.9872 -112.1067 359° North 228 262 9,600 -1,140 Descending Salt Lake Center
06:10PM 41.0083 -112.0528 63° Northeast 222 255 8,700 -1,260 Descending Salt Lake Center
06:11PM 40.9581 -112.0153 151° Southeast 188 216 7,100 -1,080 Descending Salt Lake Center
06:13PM 40.8578 -112.0053 176° South 179 206 5,200 -900 Descending Salt Lake Center
06:14PM 40.8264 -112.0039 178° South 134 154 4,700 -720 Descending Salt Lake Center